createdAt,value
2022-09-17T00:01:23.036Z,19.60
2022-09-17T00:03:52.409Z,19.60
2022-09-17T00:06:19.470Z,19.60
2022-09-17T00:08:46.167Z,19.50
2022-09-17T00:11:14.505Z,19.70
2022-09-17T00:13:42.053Z,19.60
2022-09-17T00:16:08.825Z,19.60
2022-09-17T00:18:37.029Z,19.60
2022-09-17T00:21:04.187Z,19.60
2022-09-17T00:23:30.984Z,19.80
2022-09-17T00:25:59.063Z,19.70
2022-09-17T00:28:25.924Z,19.60
2022-09-17T00:30:52.657Z,19.50
2022-09-17T00:33:20.214Z,19.60
2022-09-17T00:35:57.593Z,19.40
2022-09-17T00:38:24.307Z,19.30
2022-09-17T00:40:51.080Z,19.30
2022-09-17T00:43:34.884Z,19.30
2022-09-17T00:46:02.315Z,19.20
2022-09-17T00:48:29.104Z,19.10
2022-09-17T00:50:56.396Z,19.10
2022-09-17T00:53:23.221Z,19.10
2022-09-17T00:56:01.758Z,19.10
2022-09-17T00:58:29.687Z,19.10
2022-09-17T01:00:56.445Z,19.10
2022-09-17T01:03:23.232Z,19.20
2022-09-17T01:06:05.757Z,19.00
2022-09-17T01:08:43.872Z,18.90
2022-09-17T01:11:13.765Z,18.60
2022-09-17T01:13:40.471Z,18.50
2022-09-17T01:16:16.483Z,18.40
2022-09-17T01:18:46.081Z,18.30
2022-09-17T01:21:15.650Z,18.20
2022-09-17T01:23:48.193Z,18.30
2022-09-17T01:26:14.893Z,18.20
2022-09-17T01:28:42.819Z,18.30
2022-09-17T01:31:12.907Z,18.20
2022-09-17T01:33:57.210Z,18.20
2022-09-17T01:36:35.874Z,18.20
2022-09-17T01:39:25.165Z,18.20
2022-09-17T01:41:59.681Z,18.30
2022-09-17T01:44:37.095Z,18.30
2022-09-17T01:47:10.930Z,18.20
2022-09-17T01:49:39.176Z,18.30
2022-09-17T01:52:08.555Z,18.10
2022-09-17T01:54:41.779Z,18.30
2022-09-17T01:57:12.996Z,18.30
2022-09-17T01:59:41.466Z,18.20
2022-09-17T02:02:15.032Z,18.10
2022-09-17T02:04:48.317Z,18.10
2022-09-17T02:07:20.520Z,18.10
2022-09-17T02:09:51.088Z,18.00
2022-09-17T02:12:21.081Z,18.00
2022-09-17T02:14:49.703Z,18.00
2022-09-17T02:17:20.359Z,18.10
2022-09-17T02:19:47.065Z,18.20
2022-09-17T02:22:32.125Z,18.10
2022-09-17T02:25:02.674Z,18.20
2022-09-17T02:27:37.164Z,18.00
2022-09-17T02:30:04.596Z,18.10
2022-09-17T02:32:31.352Z,18.00
2022-09-17T02:34:58.146Z,18.10
2022-09-17T02:37:24.884Z,18.30
2022-09-17T02:39:51.661Z,18.20
2022-09-17T02:42:30.732Z,18.20
2022-09-17T02:45:15.635Z,18.10
2022-09-17T02:47:48.597Z,18.20
2022-09-17T02:50:33.741Z,18.30
2022-09-17T02:53:00.409Z,18.20
2022-09-17T02:55:33.266Z,18.20
2022-09-17T02:58:02.728Z,18.00
2022-09-17T03:00:29.470Z,18.00
2022-09-17T03:03:06.124Z,18.10
2022-09-17T03:05:33.840Z,18.10
2022-09-17T03:08:00.719Z,18.20
2022-09-17T03:10:30.808Z,18.10
2022-09-17T03:12:57.547Z,18.10
2022-09-17T03:15:24.324Z,18.00
2022-09-17T03:17:53.423Z,18.00
2022-09-17T03:20:20.382Z,18.00
2022-09-17T03:22:47.311Z,18.00
2022-09-17T03:25:14.019Z,17.90
2022-09-17T03:27:40.780Z,18.00
2022-09-17T03:30:07.682Z,17.80
2022-09-17T03:32:34.445Z,18.00
2022-09-17T03:35:01.136Z,17.80
2022-09-17T03:37:32.245Z,17.80
2022-09-17T03:39:59.829Z,17.80
2022-09-17T03:42:26.546Z,17.80
2022-09-17T03:44:53.405Z,17.80
2022-09-17T03:47:20.098Z,17.70
2022-09-17T03:49:46.858Z,17.70
2022-09-17T03:52:13.600Z,17.70
2022-09-17T03:54:40.385Z,17.70
2022-09-17T03:57:07.046Z,17.70
2022-09-17T03:59:33.728Z,17.70
2022-09-17T04:02:00.638Z,17.80
2022-09-17T04:04:27.365Z,17.70
2022-09-17T04:06:55.024Z,17.70
2022-09-17T04:09:21.826Z,17.80
2022-09-17T04:11:48.531Z,17.70
2022-09-17T04:14:15.296Z,17.60
2022-09-17T04:16:41.990Z,17.60
2022-09-17T04:19:08.738Z,17.60
2022-09-17T04:21:35.465Z,17.50
2022-09-17T04:24:02.253Z,17.30
2022-09-17T04:26:28.993Z,16.40
2022-09-17T04:28:56.011Z,15.70
2022-09-17T04:31:24.934Z,15.30
2022-09-17T04:33:51.728Z,15.50
2022-09-17T04:36:18.485Z,15.70
2022-09-17T04:38:47.924Z,15.90
2022-09-17T04:41:14.681Z,16.30
2022-09-17T04:43:41.395Z,16.50
2022-09-17T04:46:08.173Z,16.40
2022-09-17T04:48:34.928Z,16.50
2022-09-17T04:51:01.642Z,16.30
2022-09-17T04:53:28.326Z,16.10
2022-09-17T04:55:55.182Z,16.30
2022-09-17T04:58:22.134Z,16.70
2022-09-17T05:00:48.902Z,16.60
2022-09-17T05:03:15.678Z,16.70
2022-09-17T05:05:42.363Z,16.90
2022-09-17T05:08:09.074Z,17.00
2022-09-17T05:10:35.768Z,16.80
2022-09-17T05:13:02.528Z,16.80
2022-09-17T05:15:29.396Z,16.70
2022-09-17T05:17:56.144Z,17.00
2022-09-17T05:20:23.042Z,16.90
2022-09-17T05:22:51.635Z,17.20
2022-09-17T05:25:19.593Z,16.90
2022-09-17T05:27:46.424Z,16.60
2022-09-17T05:30:13.320Z,16.30
2022-09-17T05:32:40.870Z,16.40
2022-09-17T05:35:08.287Z,15.90
2022-09-17T05:37:35.043Z,16.10
2022-09-17T05:40:02.483Z,16.10
2022-09-17T05:42:29.388Z,16.10
2022-09-17T05:44:56.094Z,15.80
2022-09-17T05:47:22.817Z,15.90
2022-09-17T05:49:49.592Z,15.80
2022-09-17T05:52:16.347Z,15.80
2022-09-17T05:54:43.324Z,15.70
2022-09-17T05:57:10.186Z,15.80
2022-09-17T05:59:36.883Z,15.80
2022-09-17T06:02:03.700Z,15.90
2022-09-17T06:04:34.108Z,15.80
2022-09-17T06:07:04.272Z,15.80
2022-09-17T06:09:31.122Z,15.80
2022-09-17T06:11:58.005Z,15.80
2022-09-17T06:14:24.703Z,15.90
2022-09-17T06:16:51.469Z,16.00
2022-09-17T06:19:18.128Z,16.00
2022-09-17T06:21:46.769Z,16.00
2022-09-17T06:24:14.075Z,15.90
2022-09-17T06:26:41.037Z,16.20
2022-09-17T06:29:07.941Z,16.30
2022-09-17T06:31:34.731Z,16.10
2022-09-17T06:34:02.452Z,16.10
2022-09-17T06:36:29.270Z,16.00
2022-09-17T06:38:56.603Z,15.90
2022-09-17T06:41:23.496Z,15.90
2022-09-17T06:43:52.375Z,16.00
2022-09-17T06:46:19.736Z,16.10
2022-09-17T06:48:46.431Z,16.00
2022-09-17T06:51:13.223Z,15.80
2022-09-17T06:53:40.410Z,15.70
2022-09-17T06:56:08.360Z,15.70
2022-09-17T06:58:41.532Z,15.70
2022-09-17T07:01:09.600Z,15.70
2022-09-17T07:03:36.359Z,15.70
2022-09-17T07:06:03.262Z,15.60
2022-09-17T07:08:32.049Z,15.60
2022-09-17T07:10:58.915Z,15.60
2022-09-17T07:13:26.164Z,15.30
2022-09-17T07:15:56.719Z,15.30
2022-09-17T07:18:23.713Z,15.20
2022-09-17T07:21:10.132Z,15.20
2022-09-17T07:23:37.495Z,15.20
2022-09-17T07:26:05.928Z,15.10
2022-09-17T07:28:32.705Z,15.10
2022-09-17T07:31:02.673Z,15.00
2022-09-17T07:33:29.451Z,15.00
2022-09-17T07:35:57.074Z,15.10
2022-09-17T07:38:24.233Z,14.90
2022-09-17T07:40:58.023Z,14.80
2022-09-17T07:43:28.731Z,14.80
2022-09-17T07:45:56.753Z,14.70
2022-09-17T07:48:23.703Z,14.60
2022-09-17T07:50:50.479Z,14.70
2022-09-17T07:53:17.263Z,14.90
2022-09-17T07:55:51.010Z,14.80
2022-09-17T07:58:17.793Z,14.70
2022-09-17T08:00:44.635Z,14.70
2022-09-17T08:03:11.355Z,14.90
2022-09-17T08:05:38.420Z,14.90
2022-09-17T08:08:05.165Z,14.70
2022-09-17T08:10:32.157Z,14.50
2022-09-17T08:12:59.130Z,14.70
2022-09-17T08:15:26.138Z,14.50
2022-09-17T08:17:53.063Z,14.40
2022-09-17T08:20:20.246Z,14.40
2022-09-17T08:22:50.199Z,14.50
2022-09-17T08:25:17.316Z,14.40
2022-09-17T08:27:44.270Z,14.40
2022-09-17T08:30:11.142Z,14.40
2022-09-17T08:32:37.904Z,14.70
2022-09-17T08:35:04.751Z,14.90
2022-09-17T08:37:31.437Z,15.00
2022-09-17T08:39:58.475Z,15.10
2022-09-17T08:42:31.381Z,15.40
2022-09-17T08:45:00.843Z,15.60
2022-09-17T08:47:43.141Z,15.80
2022-09-17T08:50:15.758Z,16.00
2022-09-17T08:52:57.664Z,16.10
2022-09-17T08:55:35.063Z,15.60
2022-09-17T08:58:01.878Z,15.70
2022-09-17T09:00:31.385Z,15.80
2022-09-17T09:03:22.089Z,15.90
2022-09-17T09:05:52.515Z,16.30
2022-09-17T09:08:25.887Z,16.20
2022-09-17T09:10:55.454Z,16.20
2022-09-17T09:13:24.824Z,16.00
2022-09-17T09:15:55.184Z,16.00
2022-09-17T09:18:23.731Z,16.00
2022-09-17T09:20:53.599Z,15.90
2022-09-17T09:23:39.179Z,15.80
2022-09-17T09:26:17.333Z,16.10
2022-09-17T09:28:53.401Z,16.30
2022-09-17T09:31:33.392Z,16.70
2022-09-17T09:34:02.136Z,16.60
2022-09-17T09:36:30.135Z,16.90
2022-09-17T09:38:56.837Z,17.10
2022-09-17T09:41:37.532Z,17.30
2022-09-17T09:44:06.070Z,17.50
2022-09-17T09:46:51.269Z,17.60
2022-09-17T09:49:27.069Z,17.60
2022-09-17T09:51:59.785Z,17.80
2022-09-17T09:54:41.664Z,17.90
2022-09-17T09:57:13.121Z,18.20
2022-09-17T09:59:41.410Z,18.20
2022-09-17T10:02:08.559Z,18.20
2022-09-17T10:04:36.879Z,18.10
2022-09-17T10:07:21.592Z,18.20
2022-09-17T10:09:48.317Z,18.40
2022-09-17T10:12:16.749Z,18.30
2022-09-17T10:14:44.671Z,18.20
2022-09-17T10:17:14.357Z,18.40
2022-09-17T10:19:41.787Z,18.70
2022-09-17T10:22:19.250Z,18.80
2022-09-17T10:24:46.270Z,18.70
2022-09-17T10:27:17.314Z,18.80
2022-09-17T10:29:51.530Z,18.50
2022-09-17T10:32:19.752Z,18.30
2022-09-17T10:34:58.360Z,18.50
2022-09-17T10:37:34.006Z,18.80
2022-09-17T10:40:00.852Z,18.80
2022-09-17T10:42:27.709Z,19.10
2022-09-17T10:44:55.839Z,19.20
2022-09-17T10:47:22.580Z,19.10
2022-09-17T10:50:02.598Z,19.20
2022-09-17T10:52:32.427Z,19.20
2022-09-17T10:55:05.326Z,19.30
2022-09-17T10:57:39.940Z,19.30
2022-09-17T11:00:15.096Z,19.20
2022-09-17T11:02:56.901Z,19.40
2022-09-17T11:05:34.007Z,19.40
2022-09-17T11:08:21.309Z,19.20
2022-09-17T11:10:58.151Z,18.90
2022-09-17T11:13:34.653Z,19.00
2022-09-17T11:16:01.391Z,18.80
2022-09-17T11:18:42.523Z,18.50
2022-09-17T11:21:38.731Z,18.60
2022-09-17T11:24:24.124Z,18.90
2022-09-17T11:26:56.577Z,19.30
2022-09-17T11:29:38.319Z,19.60
2022-09-17T11:32:10.888Z,20.40
2022-09-17T11:34:37.808Z,20.20
2022-09-17T11:37:09.471Z,20.10
2022-09-17T11:39:47.343Z,20.30
2022-09-17T11:42:18.791Z,20.50
2022-09-17T11:44:45.639Z,20.30
2022-09-17T11:47:38.699Z,21.00
2022-09-17T11:50:19.312Z,21.60
2022-09-17T11:52:48.461Z,21.20
2022-09-17T11:55:20.393Z,21.30
2022-09-17T11:57:47.275Z,20.40
2022-09-17T12:00:15.962Z,19.80
2022-09-17T12:02:46.457Z,19.50
2022-09-17T12:05:22.187Z,19.70
2022-09-17T12:08:12.439Z,20.70
2022-09-17T12:10:44.109Z,20.70
2022-09-17T12:13:30.216Z,20.90
2022-09-17T12:16:15.669Z,21.40
2022-09-17T12:18:48.381Z,21.10
2022-09-17T12:21:17.297Z,21.50
2022-09-17T12:23:56.585Z,20.70
2022-09-17T12:26:32.593Z,20.40
2022-09-17T12:29:24.648Z,21.10
2022-09-17T12:31:58.314Z,21.70
2022-09-17T12:34:37.382Z,21.60
2022-09-17T12:37:27.489Z,22.00
2022-09-17T12:40:06.917Z,21.40
2022-09-17T12:42:42.622Z,21.10
2022-09-17T12:45:12.530Z,21.50
2022-09-17T12:48:14.596Z,21.70
2022-09-17T12:50:48.265Z,21.20
2022-09-17T12:53:17.888Z,21.00
2022-09-17T12:55:54.404Z,20.70
2022-09-17T12:58:21.157Z,21.20
2022-09-17T13:00:50.729Z,21.30
2022-09-17T13:03:27.272Z,21.30
2022-09-17T13:06:11.327Z,21.40
2022-09-17T13:08:44.168Z,21.60
2022-09-17T13:11:16.677Z,22.20
2022-09-17T13:13:49.553Z,21.90
2022-09-17T13:16:42.763Z,20.80
2022-09-17T13:19:17.427Z,20.40
2022-09-17T13:22:01.272Z,20.20
2022-09-17T13:24:31.004Z,20.50
2022-09-17T13:26:59.102Z,20.30
2022-09-17T13:29:52.192Z,20.20
2022-09-17T13:32:37.382Z,19.90
2022-09-17T13:35:10.323Z,20.20
2022-09-17T13:37:44.289Z,20.30
2022-09-17T13:40:26.536Z,20.90
2022-09-17T13:42:57.551Z,21.20
2022-09-17T13:45:25.062Z,21.60
2022-09-17T13:48:24.201Z,21.40
2022-09-17T13:50:51.110Z,21.90
2022-09-17T13:53:21.397Z,21.80
2022-09-17T13:55:50.939Z,21.30
2022-09-17T13:58:20.841Z,20.80
2022-09-17T14:00:54.079Z,20.50
2022-09-17T14:03:48.514Z,20.40
2022-09-17T14:06:15.176Z,20.50
2022-09-17T14:08:45.094Z,20.50
2022-09-17T14:11:24.324Z,20.00
2022-09-17T14:14:03.352Z,19.90
2022-09-17T14:16:40.468Z,19.80
2022-09-17T14:19:16.543Z,20.30
2022-09-17T14:21:46.392Z,20.80
2022-09-17T14:24:21.822Z,21.30
2022-09-17T14:27:07.545Z,21.00
2022-09-17T14:29:40.956Z,20.50
2022-09-17T14:32:11.484Z,20.60
2022-09-17T14:34:38.391Z,20.60
2022-09-17T14:37:05.120Z,20.70
2022-09-17T14:39:37.330Z,20.80
2022-09-17T14:42:05.503Z,20.80
2022-09-17T14:44:34.603Z,20.80
2022-09-17T14:47:02.888Z,20.70
2022-09-17T14:49:32.533Z,21.10
2022-09-17T14:51:59.634Z,21.10
2022-09-17T14:54:36.085Z,21.10
2022-09-17T14:57:09.215Z,20.70
2022-09-17T14:59:35.984Z,20.70
2022-09-17T15:02:02.852Z,20.80
2022-09-17T15:04:29.628Z,21.00
2022-09-17T15:07:09.594Z,20.80
2022-09-17T15:09:36.323Z,20.40
2022-09-17T15:12:03.817Z,20.50
2022-09-17T15:14:31.819Z,20.40
2022-09-17T15:16:59.621Z,20.40
2022-09-17T15:19:28.630Z,20.20
2022-09-17T15:21:56.424Z,20.00
2022-09-17T15:24:32.142Z,20.20
2022-09-17T15:27:02.629Z,20.30
2022-09-17T15:29:31.317Z,20.30
2022-09-17T15:31:58.348Z,20.40
2022-09-17T15:34:25.356Z,20.50
2022-09-17T15:37:15.328Z,20.20
2022-09-17T15:39:42.645Z,20.00
2022-09-17T15:42:20.523Z,20.10
2022-09-17T15:44:47.428Z,19.80
2022-09-17T15:47:32.737Z,20.10
2022-09-17T15:50:14.680Z,19.80
2022-09-17T15:52:41.449Z,19.70
2022-09-17T15:55:27.290Z,19.80
2022-09-17T15:57:54.054Z,19.70
2022-09-17T16:00:20.902Z,19.90
2022-09-17T16:02:47.936Z,19.60
2022-09-17T16:05:17.864Z,19.30
2022-09-17T16:07:45.480Z,19.30
2022-09-17T16:10:13.217Z,19.40
2022-09-17T16:12:40.093Z,19.20
2022-09-17T16:15:07.287Z,18.90
2022-09-17T16:17:37.107Z,18.80
2022-09-17T16:20:08.593Z,18.50
2022-09-17T16:22:35.321Z,18.60
2022-09-17T16:25:02.170Z,18.50
2022-09-17T16:27:30.637Z,18.90
2022-09-17T16:30:02.473Z,18.90
2022-09-17T16:32:29.334Z,18.90
2022-09-17T16:34:56.222Z,18.90
2022-09-17T16:37:23.063Z,18.90
2022-09-17T16:39:50.854Z,18.90
2022-09-17T16:42:17.694Z,18.70
2022-09-17T16:44:44.403Z,18.70
2022-09-17T16:47:11.062Z,18.70
2022-09-17T16:49:37.871Z,18.70
2022-09-17T16:52:04.623Z,18.70
2022-09-17T16:54:31.355Z,18.40
2022-09-17T16:56:58.102Z,18.30
2022-09-17T16:59:25.219Z,18.20
2022-09-17T17:01:52.024Z,18.10
2022-09-17T17:04:21.217Z,17.90
2022-09-17T17:06:47.992Z,17.80
2022-09-17T17:09:14.784Z,17.70
2022-09-17T17:11:41.744Z,17.70
2022-09-17T17:14:13.980Z,17.40
2022-09-17T17:16:43.492Z,17.30
2022-09-17T17:19:10.941Z,17.40
2022-09-17T17:21:37.763Z,17.40
2022-09-17T17:24:04.617Z,17.30
2022-09-17T17:26:31.409Z,17.20
2022-09-17T17:28:58.132Z,17.10
2022-09-17T17:31:24.947Z,17.20
2022-09-17T17:33:51.678Z,17.10
2022-09-17T17:36:18.420Z,16.90
2022-09-17T17:38:45.099Z,16.90
2022-09-17T17:41:13.053Z,16.80
2022-09-17T17:43:39.816Z,16.50
2022-09-17T17:46:10.652Z,16.30
2022-09-17T17:48:37.537Z,16.00
2022-09-17T17:51:05.090Z,16.00
2022-09-17T17:53:32.104Z,16.00
2022-09-17T17:55:59.737Z,16.00
2022-09-17T17:58:26.546Z,15.80
2022-09-17T18:00:53.564Z,15.50
2022-09-17T18:03:24.808Z,15.50
2022-09-17T18:05:53.321Z,15.90
2022-09-17T18:08:20.003Z,15.80
2022-09-17T18:10:55.771Z,15.60
2022-09-17T18:13:22.944Z,15.50
2022-09-17T18:15:56.631Z,15.30
2022-09-17T18:18:24.027Z,14.90
2022-09-17T18:20:53.217Z,14.90
2022-09-17T18:23:20.799Z,15.00
2022-09-17T18:25:54.289Z,15.00
2022-09-17T18:28:21.448Z,15.20
2022-09-17T18:30:49.014Z,15.00
2022-09-17T18:33:20.546Z,15.20
2022-09-17T18:35:47.858Z,15.10
2022-09-17T18:38:15.574Z,15.00
2022-09-17T18:40:42.651Z,15.00
2022-09-17T18:43:09.786Z,15.00
2022-09-17T18:45:36.477Z,14.80
2022-09-17T18:48:05.530Z,14.80
2022-09-17T18:50:32.413Z,14.90
2022-09-17T18:52:59.202Z,15.10
2022-09-17T18:55:25.950Z,15.30
2022-09-17T18:57:52.677Z,15.40
2022-09-17T19:00:20.455Z,15.20
2022-09-17T19:02:50.359Z,14.80
2022-09-17T19:05:17.324Z,14.80
2022-09-17T19:07:45.431Z,15.00
2022-09-17T19:10:12.709Z,14.90
2022-09-17T19:12:39.601Z,14.70
2022-09-17T19:15:07.100Z,14.70
2022-09-17T19:17:33.843Z,14.50
2022-09-17T19:20:00.689Z,14.80
2022-09-17T19:22:27.379Z,14.60
2022-09-17T19:24:54.211Z,14.60
2022-09-17T19:27:21.042Z,14.60
2022-09-17T19:29:47.820Z,14.40
2022-09-17T19:32:16.634Z,14.50
2022-09-17T19:34:43.752Z,14.40
2022-09-17T19:37:10.512Z,14.40
2022-09-17T19:39:37.367Z,14.30
2022-09-17T19:42:04.248Z,14.20
2022-09-17T19:44:31.800Z,14.00
2022-09-17T19:46:58.535Z,13.80
2022-09-17T19:49:25.424Z,14.00
2022-09-17T19:51:52.152Z,14.20
2022-09-17T19:54:19.072Z,14.30
2022-09-17T19:56:46.449Z,14.40
2022-09-17T19:59:13.668Z,14.40
2022-09-17T20:01:40.715Z,14.30
2022-09-17T20:04:07.534Z,14.10
2022-09-17T20:06:34.429Z,14.10
2022-09-17T20:09:03.933Z,13.80
2022-09-17T20:11:30.749Z,13.70
2022-09-17T20:13:58.442Z,13.70
2022-09-17T20:16:25.609Z,13.70
2022-09-17T20:18:52.477Z,14.00
2022-09-17T20:21:28.174Z,14.20
2022-09-17T20:23:55.786Z,14.20
2022-09-17T20:26:22.949Z,14.20
2022-09-17T20:28:50.419Z,14.20
2022-09-17T20:31:19.090Z,14.30
2022-09-17T20:33:46.434Z,14.10
2022-09-17T20:36:14.606Z,14.00
2022-09-17T20:39:10.438Z,14.00
2022-09-17T20:41:29.121Z,13.80
2022-09-17T20:43:56.051Z,13.90
2022-09-17T20:46:28.373Z,13.80
2022-09-17T20:48:57.481Z,13.90
2022-09-17T20:51:25.593Z,14.40
2022-09-17T20:53:52.481Z,13.90
2022-09-17T20:56:20.747Z,13.60
2022-09-17T20:58:53.452Z,13.60
2022-09-17T21:01:24.967Z,13.70
2022-09-17T21:03:53.424Z,13.40
2022-09-17T21:06:24.106Z,13.40
2022-09-17T21:08:51.200Z,13.60
2022-09-17T21:11:18.667Z,13.40
2022-09-17T21:13:45.453Z,13.30
2022-09-17T21:16:12.652Z,13.20
2022-09-17T21:18:39.933Z,13.10
2022-09-17T21:21:08.105Z,13.10
2022-09-17T21:23:35.574Z,13.20
2022-09-17T21:26:06.334Z,13.10
2022-09-17T21:28:34.112Z,13.10
2022-09-17T21:31:12.014Z,13.10
2022-09-17T21:33:39.541Z,13.40
2022-09-17T21:36:07.595Z,13.20
2022-09-17T21:38:34.553Z,13.20
2022-09-17T21:41:02.441Z,13.20
2022-09-17T21:43:29.807Z,13.10
2022-09-17T21:46:20.553Z,12.90
2022-09-17T21:48:51.746Z,13.00
2022-09-17T21:51:19.544Z,13.10
2022-09-17T21:53:49.723Z,13.00
2022-09-17T21:56:17.514Z,12.80
2022-09-17T21:58:45.134Z,12.70
2022-09-17T22:01:19.337Z,12.70
2022-09-17T22:03:46.180Z,12.80
2022-09-17T22:06:12.871Z,12.70
2022-09-17T22:08:40.076Z,12.70
2022-09-17T22:11:07.494Z,12.90
2022-09-17T22:13:34.804Z,12.80
2022-09-17T22:16:03.298Z,12.80
2022-09-17T22:18:30.907Z,12.90
2022-09-17T22:20:57.899Z,12.70
2022-09-17T22:23:24.906Z,12.80
2022-09-17T22:26:01.392Z,12.70
2022-09-17T22:28:28.262Z,12.40
2022-09-17T22:30:55.108Z,12.60
2022-09-17T22:33:21.914Z,12.30
2022-09-17T22:35:48.653Z,12.20
2022-09-17T22:38:15.328Z,12.10
2022-09-17T22:40:42.097Z,12.00
2022-09-17T22:43:08.834Z,12.00
2022-09-17T22:45:35.567Z,11.90
2022-09-17T22:48:02.397Z,11.70
2022-09-17T22:50:29.044Z,11.60
2022-09-17T22:52:55.722Z,11.60
2022-09-17T22:55:22.460Z,11.50
2022-09-17T22:57:49.246Z,11.50
2022-09-17T23:00:16.030Z,11.40
2022-09-17T23:02:42.873Z,11.40
2022-09-17T23:05:09.684Z,11.30
2022-09-17T23:07:37.928Z,11.20
2022-09-17T23:10:04.823Z,11.30
2022-09-17T23:12:31.543Z,11.60
2022-09-17T23:14:58.833Z,11.70
2022-09-17T23:17:29.344Z,11.70
2022-09-17T23:19:56.290Z,11.80
2022-09-17T23:22:23.212Z,11.50
2022-09-17T23:24:50.063Z,11.80
2022-09-17T23:27:16.838Z,11.50
2022-09-17T23:29:43.604Z,11.30
2022-09-17T23:32:10.521Z,11.20
2022-09-17T23:34:37.771Z,11.10
2022-09-17T23:37:04.543Z,11.00
2022-09-17T23:39:31.467Z,11.00
2022-09-17T23:41:58.358Z,11.10
2022-09-17T23:44:25.043Z,11.10
2022-09-17T23:46:51.783Z,10.90
2022-09-17T23:49:18.560Z,10.80
2022-09-17T23:51:45.302Z,10.80
2022-09-17T23:54:12.051Z,10.80
2022-09-17T23:56:38.935Z,10.80
2022-09-17T23:59:07.330Z,10.80
